Time;durP1;ratioP1;P1;durP2;ratioP2;P2;SDS_P1;SDS_P2;PMS_P1;PMS_P2;Temp;Humidity;BMP_temperature;BMP_pressure;BME280_temperature;BME280_humidity;BME280_pressure;Samples;Min_cycle;Max_cycle;Signal;HPM_P1;HPM_P2
2024/02/19 00:01:48;;;;;;;13.32;3.28;;;12.40;99.90;;;;;;5047390;28;20033;-51
2024/02/19 00:04:14;;;;;;;12.90;3.25;;;12.40;99.90;;;;;;5047428;28;20037;-50
2024/02/19 00:06:40;;;;;;;11.43;3.08;;;12.40;99.90;;;;;;5047359;28;20041;-50
2024/02/19 00:09:05;;;;;;;7.32;2.60;;;12.40;99.90;;;;;;5046046;28;20030;-51
2024/02/19 00:11:31;;;;;;;12.00;3.38;;;12.30;99.90;;;;;;5047378;28;20033;-50
2024/02/19 00:13:58;;;;;;;10.70;2.65;;;12.30;99.90;;;;;;5047520;28;20103;-50
2024/02/19 00:16:24;;;;;;;10.93;2.83;;;12.30;99.90;;;;;;5046173;28;20033;-50
2024/02/19 00:18:49;;;;;;;8.98;2.55;;;12.30;99.90;;;;;;5045622;28;20025;-50
2024/02/19 00:21:18;;;;;;;9.57;3.38;;;12.30;99.90;;;;;;5045963;28;20029;-50
2024/02/19 00:23:43;;;;;;;7.63;2.40;;;12.30;99.90;;;;;;5045804;28;20072;-50
2024/02/19 00:26:09;;;;;;;7.72;2.30;;;12.30;99.90;;;;;;5047149;28;20025;-50
2024/02/19 00:28:34;;;;;;;6.53;1.98;;;12.20;99.90;;;;;;5046827;28;20022;-50
2024/02/19 00:31:00;;;;;;;8.13;2.28;;;12.20;99.90;;;;;;5045744;28;20030;-50
2024/02/19 00:33:25;;;;;;;6.40;2.17;;;12.20;99.90;;;;;;5045475;28;20404;-50
2024/02/19 00:35:51;;;;;;;7.00;2.50;;;12.20;99.90;;;;;;5045635;28;20038;-50
2024/02/19 00:38:18;;;;;;;11.50;2.67;;;12.20;99.90;;;;;;5045500;28;20025;-50
2024/02/19 00:40:43;;;;;;;9.23;2.35;;;12.20;99.90;;;;;;5046830;28;20379;-50
2024/02/19 00:43:09;;;;;;;6.13;1.98;;;12.10;99.90;;;;;;5046603;28;20030;-50
2024/02/19 00:45:35;;;;;;;7.28;2.20;;;12.10;99.90;;;;;;5045311;28;20040;-50
2024/02/19 00:48:00;;;;;;;6.55;2.10;;;12.10;99.90;;;;;;5045405;28;20032;-50
2024/02/19 00:50:26;;;;;;;8.98;2.00;;;12.20;99.90;;;;;;5045492;28;20084;-50
2024/02/19 00:52:51;;;;;;;5.13;1.80;;;12.10;99.90;;;;;;5046618;28;20029;-50
2024/02/19 00:55:20;;;;;;;7.60;2.47;;;12.10;99.90;;;;;;5045380;28;20029;-50
2024/02/19 00:57:46;;;;;;;5.88;2.30;;;12.10;99.90;;;;;;5045155;28;20108;-50
2024/02/19 01:00:12;;;;;;;4.32;1.90;;;12.10;99.90;;;;;;5046876;28;20030;-50
2024/02/19 01:02:37;;;;;;;7.68;2.22;;;12.10;99.90;;;;;;5045393;28;20026;-50
2024/02/19 01:05:03;;;;;;;6.35;2.25;;;12.10;99.90;;;;;;5024934;28;20034;-50
2024/02/19 01:07:30;;;;;;;5.25;1.60;;;12.00;99.90;;;;;;5025362;28;20105;-50
2024/02/19 01:09:55;;;;;;;7.32;2.13;;;12.00;99.90;;;;;;5041652;28;20030;-50
2024/02/19 01:12:21;;;;;;;11.20;2.00;;;12.00;99.90;;;;;;5025271;28;20526;-50
2024/02/19 01:14:47;;;;;;;4.45;1.88;;;12.00;99.90;;;;;;5041659;28;20053;-50
2024/02/19 01:17:13;;;;;;;5.75;1.73;;;12.00;99.90;;;;;;5041935;28;20022;-50
2024/02/19 01:19:39;;;;;;;6.35;1.92;;;12.00;99.90;;;;;;5025149;28;20022;-50
2024/02/19 01:22:04;;;;;;;5.93;2.03;;;12.00;99.90;;;;;;5041646;28;20519;-50
2024/02/19 01:24:31;;;;;;;2.85;1.27;;;11.90;99.90;;;;;;5041762;28;20026;-50
2024/02/19 01:26:57;;;;;;;6.55;2.00;;;11.90;99.90;;;;;;5026433;28;20058;-50
2024/02/19 01:29:24;;;;;;;2.75;1.38;;;11.90;99.90;;;;;;5025263;28;20030;-50
2024/02/19 01:31:50;;;;;;;4.63;1.73;;;11.90;99.90;;;;;;5029047;28;20034;-50
2024/02/19 01:34:17;;;;;;;3.17;1.48;;;11.90;99.90;;;;;;5030422;28;20041;-50
2024/02/19 01:36:44;;;;;;;2.13;1.20;;;11.90;99.90;;;;;;5028903;28;20036;-50
2024/02/19 01:39:10;;;;;;;7.68;2.25;;;11.90;99.90;;;;;;5030298;28;20439;-50
2024/02/19 01:41:36;;;;;;;4.15;1.30;;;11.90;99.90;;;;;;5045860;28;20026;-51
2024/02/19 01:44:02;;;;;;;2.97;1.40;;;11.90;99.90;;;;;;5045659;28;20097;-50
2024/02/19 01:46:29;;;;;;;3.83;1.70;;;11.80;99.90;;;;;;5045407;28;20018;-50
2024/02/19 01:48:54;;;;;;;6.20;1.63;;;11.90;99.90;;;;;;5045487;28;20034;-50
2024/02/19 01:51:20;;;;;;;3.75;1.60;;;11.80;99.90;;;;;;5045342;28;20471;-50
2024/02/19 01:53:46;;;;;;;3.17;1.52;;;11.80;99.90;;;;;;5045118;28;20037;-50
2024/02/19 01:56:11;;;;;;;2.65;1.45;;;11.90;99.90;;;;;;5045278;28;20034;-51
2024/02/19 01:58:37;;;;;;;3.47;1.40;;;11.80;99.90;;;;;;5045230;28;20073;-50
2024/02/19 02:01:04;;;;;;;3.58;1.60;;;11.80;99.90;;;;;;5045389;28;20034;-50
2024/02/19 02:03:30;;;;;;;3.60;1.42;;;11.80;99.90;;;;;;5028698;28;20436;-50
2024/02/19 02:05:55;;;;;;;4.13;1.38;;;11.80;99.90;;;;;;5045183;28;20045;-50
2024/02/19 02:08:21;;;;;;;5.28;1.35;;;11.80;99.90;;;;;;5045223;28;20105;-50
2024/02/19 02:10:47;;;;;;;5.22;1.48;;;11.80;99.90;;;;;;5030185;28;20030;-50
2024/02/19 02:13:12;;;;;;;3.38;1.42;;;11.80;99.90;;;;;;5044928;28;20034;-50
2024/02/19 02:15:38;;;;;;;4.00;1.58;;;11.80;99.90;;;;;;5044940;28;20470;-50
2024/02/19 02:18:04;;;;;;;5.82;1.42;;;11.80;99.90;;;;;;5044889;28;20033;-50
2024/02/19 02:20:31;;;;;;;4.53;1.40;;;11.80;99.90;;;;;;5045012;28;20049;-50
2024/02/19 02:22:57;;;;;;;2.38;1.30;;;11.70;99.90;;;;;;5028199;28;20141;-50
2024/02/19 02:25:23;;;;;;;2.50;1.17;;;11.70;99.90;;;;;;5044820;28;20030;-50
2024/02/19 02:27:49;;;;;;;3.92;1.60;;;11.70;99.90;;;;;;5044677;28;20113;-50
2024/02/19 02:30:14;;;;;;;3.35;1.30;;;11.70;99.90;;;;;;5044634;28;20034;-50
2024/02/19 02:32:40;;;;;;;3.72;1.40;;;11.70;99.90;;;;;;5029078;28;20034;-51
2024/02/19 02:35:05;;;;;;;2.30;1.15;;;11.70;99.90;;;;;;5029337;28;20026;-48
2024/02/19 02:37:31;;;;;;;2.92;1.23;;;11.70;99.90;;;;;;5044525;28;20025;-50
2024/02/19 02:39:57;;;;;;;2.42;1.05;;;11.70;99.90;;;;;;5044631;28;20030;-50
2024/02/19 02:42:22;;;;;;;4.00;1.00;;;11.70;99.90;;;;;;5027546;28;20079;-50
2024/02/19 02:44:48;;;;;;;1.40;1.10;;;11.70;99.90;;;;;;5044398;28;20040;-50
2024/02/19 02:47:13;;;;;;;2.45;1.10;;;11.70;99.90;;;;;;5044502;28;20037;-50
2024/02/19 02:49:39;;;;;;;1.65;0.82;;;11.60;99.90;;;;;;5044385;28;20092;-50
2024/02/19 02:52:04;;;;;;;1.50;1.05;;;11.60;99.90;;;;;;5044247;28;20085;-50
2024/02/19 02:54:30;;;;;;;2.50;1.15;;;11.60;99.90;;;;;;5044278;28;20030;-50
2024/02/19 02:56:56;;;;;;;2.33;1.20;;;11.60;99.90;;;;;;5044120;28;20102;-50
2024/02/19 02:59:21;;;;;;;3.22;1.10;;;11.60;99.90;;;;;;5044255;28;20026;-50
2024/02/19 03:01:47;;;;;;;2.25;1.02;;;11.60;99.90;;;;;;5044200;28;20029;-50
2024/02/19 03:04:13;;;;;;;4.07;1.20;;;11.60;99.90;;;;;;5027513;28;20049;-50
2024/02/19 03:06:39;;;;;;;3.53;1.13;;;11.60;99.90;;;;;;5043938;28;20041;-50
2024/02/19 03:09:05;;;;;;;1.85;1.25;;;11.60;99.90;;;;;;5028726;28;20057;-50
2024/02/19 03:11:30;;;;;;;2.40;1.00;;;11.60;99.90;;;;;;5043909;28;20034;-50
2024/02/19 03:13:56;;;;;;;2.90;1.00;;;11.60;99.90;;;;;;5027130;28;20025;-50
2024/02/19 03:16:22;;;;;;;2.53;0.90;;;11.60;99.90;;;;;;5043850;28;20037;-50
2024/02/19 03:18:47;;;;;;;1.10;0.82;;;11.60;99.90;;;;;;5028411;28;20026;-50
2024/02/19 03:21:15;;;;;;;2.28;1.00;;;11.60;99.90;;;;;;5043718;28;20611;-50
2024/02/19 03:23:51;;;;;;;3.20;1.00;;;11.60;99.90;;;;;;5043379;28;20468;-50
2024/02/19 03:26:25;;;;;;;4.07;0.90;;;11.60;99.90;;;;;;5043453;28;20026;-50
2024/02/19 03:28:50;;;;;;;2.28;0.95;;;11.60;99.90;;;;;;5027078;28;20030;-50
2024/02/19 03:31:16;;;;;;;1.45;0.98;;;11.60;99.90;;;;;;5043547;28;20036;-50
2024/02/19 03:33:42;;;;;;;1.83;1.00;;;11.60;99.90;;;;;;5027971;28;20084;-50
2024/02/19 03:36:09;;;;;;;2.63;1.20;;;11.60;99.90;;;;;;5026812;28;20097;-50
2024/02/19 03:38:34;;;;;;;4.90;1.05;;;11.60;99.90;;;;;;5043308;28;20392;-50
2024/02/19 03:41:00;;;;;;;1.77;1.00;;;11.60;99.90;;;;;;5043590;28;20029;-50
2024/02/19 03:43:25;;;;;;;1.83;1.00;;;11.60;99.90;;;;;;5028095;28;20384;-50
2024/02/19 03:45:51;;;;;;;1.75;1.02;;;11.60;99.90;;;;;;5043377;28;20034;-50
2024/02/19 03:48:17;;;;;;;3.47;1.10;;;11.50;99.90;;;;;;5028044;28;20037;-50
2024/02/19 03:50:42;;;;;;;2.13;0.82;;;11.50;99.90;;;;;;5043101;28;20026;-50
2024/02/19 03:53:08;;;;;;;1.52;0.90;;;11.50;99.90;;;;;;5042399;28;20440;-50
2024/02/19 03:55:33;;;;;;;3.35;1.45;;;11.50;99.90;;;;;;5043255;28;20033;-50
2024/02/19 03:57:59;;;;;;;2.28;1.00;;;11.50;99.90;;;;;;5027909;28;20080;-50
2024/02/19 04:00:25;;;;;;;2.90;1.00;;;11.50;99.90;;;;;;5042913;28;20118;-50
2024/02/19 04:02:50;;;;;;;1.38;0.85;;;11.50;99.90;;;;;;5026480;28;20026;-50
2024/02/19 04:05:16;;;;;;;1.13;0.80;;;11.50;99.90;;;;;;5026425;28;20515;-50
2024/02/19 04:07:41;;;;;;;1.67;0.98;;;11.40;99.90;;;;;;5043003;28;20057;-50
2024/02/19 04:10:07;;;;;;;2.13;1.10;;;11.50;99.90;;;;;;5026131;28;20481;-51
2024/02/19 04:12:33;;;;;;;2.17;1.00;;;11.50;99.90;;;;;;5027472;28;20030;-50
2024/02/19 04:14:58;;;;;;;2.65;0.80;;;11.50;99.90;;;;;;5042855;28;20022;-51
2024/02/19 04:17:26;;;;;;;3.13;1.23;;;11.40;99.90;;;;;;5026569;28;20072;-50
2024/02/19 04:19:53;;;;;;;1.27;0.65;;;11.50;99.90;;;;;;5042475;28;20048;-50
2024/02/19 04:22:19;;;;;;;1.73;0.90;;;11.50;99.90;;;;;;5042540;28;20059;-50
2024/02/19 04:24:44;;;;;;;2.00;0.73;;;11.50;99.90;;;;;;5027207;28;20030;-50
2024/02/19 04:27:10;;;;;;;0.98;0.75;;;11.50;99.90;;;;;;5027298;28;20034;-50
2024/02/19 04:29:36;;;;;;;1.23;0.70;;;11.40;99.90;;;;;;5025786;28;20528;-50
2024/02/19 04:32:01;;;;;;;1.90;0.70;;;11.40;99.90;;;;;;5025614;28;20034;-50
2024/02/19 04:34:27;;;;;;;1.38;0.98;;;11.40;99.90;;;;;;5042317;28;20030;-50
2024/02/19 04:36:53;;;;;;;2.33;0.90;;;11.40;99.90;;;;;;5042271;28;20049;-50
2024/02/19 04:39:18;;;;;;;3.10;1.15;;;11.40;99.90;;;;;;5025742;28;20388;-50
2024/02/19 04:41:44;;;;;;;1.02;0.90;;;11.40;99.90;;;;;;5026905;28;20361;-50
2024/02/19 04:44:09;;;;;;;1.17;1.00;;;11.40;99.90;;;;;;5027012;28;20034;-50
2024/02/19 04:46:36;;;;;;;0.90;0.63;;;11.40;99.90;;;;;;5026701;28;20030;-50
2024/02/19 04:49:02;;;;;;;1.05;0.80;;;11.40;99.90;;;;;;5042112;28;20038;-50
2024/02/19 04:51:28;;;;;;;0.82;0.60;;;11.40;99.90;;;;;;5026958;28;20032;-50
2024/02/19 04:53:54;;;;;;;1.20;0.70;;;11.40;99.90;;;;;;5042058;28;20029;-50
2024/02/19 04:56:19;;;;;;;2.20;1.00;;;11.40;99.90;;;;;;5026791;28;20021;-50
2024/02/19 04:58:45;;;;;;;3.10;1.17;;;11.40;99.90;;;;;;5042060;28;20424;-50
2024/02/19 05:01:10;;;;;;;4.97;1.05;;;11.40;99.90;;;;;;5026821;28;20056;-50
2024/02/19 05:03:36;;;;;;;2.67;1.00;;;11.40;99.90;;;;;;5026372;28;20030;-50
2024/02/19 05:06:01;;;;;;;3.20;1.10;;;11.40;99.90;;;;;;5025445;28;20030;-50
2024/02/19 05:08:27;;;;;;;1.80;0.98;;;11.40;99.90;;;;;;5041912;28;20054;-50
2024/02/19 05:10:52;;;;;;;2.83;0.95;;;11.40;99.90;;;;;;5041890;28;20063;-51
2024/02/19 05:13:18;;;;;;;2.80;0.93;;;11.30;99.90;;;;;;5026648;28;20033;-50
2024/02/19 05:15:44;;;;;;;2.47;0.90;;;11.40;99.90;;;;;;5041951;28;20388;-50
2024/02/19 05:18:09;;;;;;;1.27;0.82;;;11.30;99.90;;;;;;5041689;28;20022;-50
2024/02/19 05:20:35;;;;;;;1.38;0.90;;;11.30;99.90;;;;;;5041781;28;20022;-50
2024/02/19 05:23:01;;;;;;;2.00;1.30;;;11.40;99.90;;;;;;5041701;28;20026;-50
2024/02/19 05:25:27;;;;;;;2.10;1.00;;;11.30;99.90;;;;;;5026363;28;20049;-50
2024/02/19 05:27:53;;;;;;;2.00;1.00;;;11.30;99.90;;;;;;5041631;28;20404;-50
2024/02/19 05:30:22;;;;;;;2.22;0.90;;;11.30;99.90;;;;;;5025036;28;20061;-50
2024/02/19 05:32:47;;;;;;;2.55;1.05;;;11.30;99.90;;;;;;5040970;28;20026;-50
2024/02/19 05:35:13;;;;;;;1.85;0.93;;;11.30;99.90;;;;;;5041535;28;20026;-50
2024/02/19 05:37:38;;;;;;;2.47;0.90;;;11.30;99.90;;;;;;5041518;28;20053;-51
2024/02/19 05:40:04;;;;;;;1.95;0.98;;;11.30;99.90;;;;;;5041681;28;20025;-50
2024/02/19 05:42:30;;;;;;;2.08;1.10;;;11.30;99.90;;;;;;5026197;28;20038;-50
2024/02/19 05:44:56;;;;;;;2.40;1.10;;;11.30;99.90;;;;;;5041448;28;20113;-50
2024/02/19 05:47:21;;;;;;;2.70;1.10;;;11.30;99.90;;;;;;5026342;28;20033;-50
2024/02/19 05:49:48;;;;;;;3.38;1.10;;;11.30;99.90;;;;;;5043839;28;20021;-50
2024/02/19 05:52:13;;;;;;;3.67;1.30;;;11.30;99.90;;;;;;5026204;28;20024;-50
2024/02/19 05:54:39;;;;;;;5.97;1.42;;;11.30;99.90;;;;;;5042468;28;20034;-50
2024/02/19 05:57:06;;;;;;;3.25;1.25;;;11.30;99.90;;;;;;5042512;28;20109;-50
2024/02/19 05:59:32;;;;;;;10.82;1.60;;;11.30;99.90;;;;;;5042590;28;20033;-50
2024/02/19 06:01:57;;;;;;;6.47;1.80;;;11.30;99.90;;;;;;5042561;28;20017;-50
2024/02/19 06:04:23;;;;;;;4.60;1.30;;;11.30;99.90;;;;;;5044822;28;20087;-50
2024/02/19 06:06:48;;;;;;;12.25;1.40;;;11.30;99.90;;;;;;5044498;28;20026;-50
2024/02/19 06:09:14;;;;;;;7.25;1.70;;;11.30;99.90;;;;;;5044401;28;20060;-51
2024/02/19 06:11:44;;;;;;;7.70;1.92;;;11.30;99.90;;;;;;5044561;28;20033;-50
2024/02/19 06:14:10;;;;;;;15.15;1.70;;;11.30;99.90;;;;;;5044556;28;20034;-50
2024/02/19 06:16:36;;;;;;;8.85;1.98;;;11.30;99.90;;;;;;5030226;28;20026;-50
2024/02/19 06:19:02;;;;;;;9.70;2.17;;;11.30;99.90;;;;;;5048168;28;20036;-50
2024/02/19 06:21:28;;;;;;;9.57;1.60;;;11.30;99.90;;;;;;5048271;28;20041;-51
2024/02/19 06:23:54;;;;;;;14.00;2.25;;;11.20;99.90;;;;;;5049855;28;20040;-50
2024/02/19 06:26:20;;;;;;;14.05;2.30;;;11.30;99.90;;;;;;5048015;28;20392;-50
2024/02/19 06:28:45;;;;;;;22.48;2.75;;;11.30;99.90;;;;;;5028288;28;20040;-51
2024/02/19 06:31:11;;;;;;;17.55;3.10;;;11.30;99.90;;;;;;5046956;28;20468;-50
2024/02/19 06:33:37;;;;;;;11.55;2.40;;;11.30;99.90;;;;;;5013739;28;20036;-50
2024/02/19 06:36:02;;;;;;;20.48;3.20;;;11.30;99.90;;;;;;5047170;28;20538;-50
2024/02/19 06:38:28;;;;;;;27.75;3.35;;;11.30;99.90;;;;;;5013619;28;20021;-50
2024/02/19 06:40:55;;;;;;;32.25;4.25;;;11.30;99.90;;;;;;5031280;28;20025;-50
2024/02/19 06:43:21;;;;;;;22.88;3.22;;;11.30;99.90;;;;;;5031342;28;20462;-50
2024/02/19 06:45:47;;;;;;;25.17;3.25;;;11.30;99.90;;;;;;5047753;28;20034;-50
2024/02/19 06:48:13;;;;;;;15.10;3.10;;;11.30;99.90;;;;;;5047290;28;20037;-50
2024/02/19 06:50:38;;;;;;;23.05;4.00;;;11.30;99.90;;;;;;5047536;28;20037;-50
2024/02/19 06:53:06;;;;;;;20.75;3.90;;;11.30;99.90;;;;;;5048712;28;20040;-50
2024/02/19 06:55:31;;;;;;;38.72;4.70;;;11.30;99.90;;;;;;5048610;28;20025;-51
2024/02/19 06:57:57;;;;;;;45.33;5.55;;;11.30;99.90;;;;;;5031002;28;20026;-50
2024/02/19 07:00:23;;;;;;;38.90;5.38;;;11.30;99.90;;;;;;5047375;28;20034;-51
2024/02/19 07:02:48;;;;;;;40.85;5.20;;;11.30;99.90;;;;;;5048796;28;20029;-50
2024/02/19 07:05:14;;;;;;;23.90;4.45;;;11.30;99.90;;;;;;5031094;28;20033;-48
2024/02/19 07:07:40;;;;;;;35.35;4.88;;;11.20;99.90;;;;;;5014426;28;20022;-48
2024/02/19 07:10:06;;;;;;;21.00;5.10;;;11.20;99.90;;;;;;5048607;28;20053;-48
2024/02/19 07:12:32;;;;;;;21.35;3.65;;;11.30;99.90;;;;;;5047246;28;20029;-48
2024/02/19 07:14:57;;;;;;;24.00;4.05;;;11.30;99.90;;;;;;5030524;28;20059;-48
2024/02/19 07:17:23;;;;;;;27.38;3.85;;;11.30;99.90;;;;;;5047031;28;20017;-48
2024/02/19 07:19:49;;;;;;;22.33;3.85;;;11.30;99.90;;;;;;5046419;28;20033;-50
2024/02/19 07:22:15;;;;;;;22.33;3.75;;;11.30;99.90;;;;;;5030559;28;20037;-50
2024/02/19 07:24:41;;;;;;;19.63;3.33;;;11.30;99.90;;;;;;5046966;28;20033;-50
2024/02/19 07:27:07;;;;;;;19.60;3.20;;;11.30;99.90;;;;;;5029392;28;20131;-50
2024/02/19 07:29:32;;;;;;;25.77;3.72;;;11.30;99.90;;;;;;5047874;28;20041;-50
2024/02/19 07:31:58;;;;;;;17.83;3.42;;;11.30;99.90;;;;;;5046413;28;20033;-50
2024/02/19 07:34:23;;;;;;;23.02;4.38;;;11.30;99.90;;;;;;5044920;28;20033;-51
2024/02/19 07:36:49;;;;;;;21.92;3.28;;;11.30;99.90;;;;;;5046028;28;20028;-50
2024/02/19 07:39:19;;;;;;;14.50;3.42;;;11.30;99.90;;;;;;5028277;28;20089;-50
2024/02/19 07:41:47;;;;;;;17.27;3.13;;;11.30;99.90;;;;;;5045977;28;20022;-50
2024/02/19 07:44:13;;;;;;;14.82;3.58;;;11.30;99.90;;;;;;5051514;28;20028;-50
2024/02/19 07:46:38;;;;;;;19.05;3.90;;;11.20;99.90;;;;;;5058276;28;20040;-50
2024/02/19 07:49:04;;;;;;;18.25;3.40;;;11.30;99.90;;;;;;5047305;28;20415;-51
2024/02/19 07:51:30;;;;;;;12.02;3.40;;;11.30;99.90;;;;;;5051963;28;20021;-50
2024/02/19 07:53:57;;;;;;;11.23;2.75;;;11.30;99.90;;;;;;5059960;28;20148;-50
2024/02/19 07:56:23;;;;;;;13.98;2.53;;;11.30;99.90;;;;;;5040238;28;20081;-50
2024/02/19 07:58:48;;;;;;;16.15;3.13;;;11.30;99.90;;;;;;5047134;28;20080;-50
2024/02/19 08:01:14;;;;;;;9.73;2.35;;;11.40;99.90;;;;;;5045644;28;20022;-50
2024/02/19 08:03:39;;;;;;;14.82;3.30;;;11.40;99.90;;;;;;5031559;28;20038;-50
2024/02/19 08:06:07;;;;;;;13.98;2.90;;;11.40;99.90;;;;;;5043449;28;20130;-50
2024/02/19 08:08:32;;;;;;;11.40;2.83;;;11.40;99.90;;;;;;5012632;28;20064;-50
2024/02/19 08:10:58;;;;;;;12.18;2.70;;;11.30;99.90;;;;;;5037635;28;20112;-50
2024/02/19 08:13:24;;;;;;;18.73;2.85;;;11.40;99.90;;;;;;5026489;28;20029;-50
2024/02/19 08:15:49;;;;;;;11.90;2.35;;;11.40;99.90;;;;;;5032160;28;20025;-50
2024/02/19 08:18:16;;;;;;;8.18;2.33;;;11.40;99.90;;;;;;5038397;28;20025;-50
2024/02/19 08:20:42;;;;;;;17.80;2.70;;;11.40;99.90;;;;;;5000407;28;20053;-51
2024/02/19 08:23:10;;;;;;;9.35;2.42;;;11.40;99.90;;;;;;5032761;28;20033;-50
2024/02/19 08:25:37;;;;;;;12.35;2.70;;;11.40;99.90;;;;;;5038828;28;20037;-50
2024/02/19 08:28:03;;;;;;;10.50;2.50;;;11.40;99.90;;;;;;5026933;28;20034;-50
2024/02/19 08:30:29;;;;;;;5.18;2.03;;;11.50;99.90;;;;;;5040585;28;20034;-50
2024/02/19 08:32:55;;;;;;;11.25;2.38;;;11.40;99.90;;;;;;5026629;28;20033;-50
2024/02/19 08:35:20;;;;;;;11.48;2.30;;;11.50;99.90;;;;;;5042514;28;20399;-51
2024/02/19 08:37:46;;;;;;;12.18;2.10;;;11.50;99.90;;;;;;5042252;28;20049;-50
2024/02/19 08:40:12;;;;;;;7.07;2.00;;;11.50;99.90;;;;;;5042113;28;20025;-50
2024/02/19 08:42:37;;;;;;;6.88;2.17;;;11.50;99.90;;;;;;5041794;28;20018;-50
2024/02/19 08:45:04;;;;;;;9.18;2.00;;;11.50;99.90;;;;;;5045295;28;20041;-50
2024/02/19 08:47:29;;;;;;;9.35;2.60;;;11.50;99.90;;;;;;5052114;28;20036;-50
2024/02/19 08:49:55;;;;;;;14.98;2.65;;;11.50;99.90;;;;;;5047237;28;20030;-50
2024/02/19 08:52:21;;;;;;;21.15;2.75;;;11.50;99.90;;;;;;5028414;28;20041;-50
2024/02/19 08:54:50;;;;;;;23.63;3.22;;;11.60;99.90;;;;;;5044632;28;20026;-50
2024/02/19 08:57:16;;;;;;;15.73;2.83;;;11.60;99.90;;;;;;5046367;28;20032;-50
2024/02/19 08:59:45;;;;;;;16.35;3.42;;;11.60;99.90;;;;;;5028154;28;20044;-50
2024/02/19 09:02:14;;;;;;;23.60;3.42;;;11.60;99.90;;;;;;5045115;28;20018;-50
2024/02/19 09:04:43;;;;;;;21.88;3.65;;;11.60;99.90;;;;;;5044886;28;20029;-50
2024/02/19 09:07:09;;;;;;;48.25;4.65;;;11.60;99.90;;;;;;5044602;28;20034;-50
2024/02/19 09:09:36;;;;;;;35.33;5.00;;;11.60;99.90;;;;;;5042902;28;20030;-50
2024/02/19 09:12:02;;;;;;;23.08;3.42;;;11.70;99.90;;;;;;5043479;28;20463;-50
2024/02/19 09:14:28;;;;;;;25.92;3.45;;;11.70;99.90;;;;;;5043798;28;20112;-50
2024/02/19 09:16:55;;;;;;;16.58;2.53;;;11.70;99.90;;;;;;5046580;28;20017;-50
2024/02/19 09:19:21;;;;;;;20.35;3.97;;;11.70;99.90;;;;;;5028079;28;20055;-50
2024/02/19 09:21:50;;;;;;;25.65;3.17;;;11.70;99.90;;;;;;5044687;28;20116;-50
2024/02/19 09:24:15;;;;;;;64.50;6.43;;;11.70;99.90;;;;;;5044836;28;20029;-50
2024/02/19 09:26:44;;;;;;;44.38;6.80;;;11.70;99.90;;;;;;5045874;28;20455;-50
2024/02/19 09:29:10;;;;;;;30.60;4.63;;;11.80;99.90;;;;;;5025059;28;20025;-50
2024/02/19 09:31:36;;;;;;;42.92;5.03;;;11.80;99.90;;;;;;5044033;28;20052;-51
2024/02/19 09:34:02;;;;;;;61.55;6.55;;;11.80;99.90;;;;;;5044406;28;20041;-50
2024/02/19 09:36:27;;;;;;;32.03;4.57;;;11.80;99.90;;;;;;5045429;28;20022;-50
2024/02/19 09:38:53;;;;;;;39.38;4.95;;;11.80;99.90;;;;;;5044674;28;20041;-50
2024/02/19 09:41:19;;;;;;;47.83;5.10;;;11.80;99.90;;;;;;5044583;28;20049;-50
2024/02/19 09:43:45;;;;;;;51.58;5.20;;;11.80;99.90;;;;;;5044241;28;20079;-51
2024/02/19 09:46:14;;;;;;;33.75;5.05;;;11.90;99.90;;;;;;5050212;28;20087;-50
2024/02/19 09:48:40;;;;;;;34.25;4.40;;;11.90;99.90;;;;;;5028060;28;20116;-50
2024/02/19 09:51:06;;;;;;;28.98;4.07;;;12.00;99.90;;;;;;5044552;28;20091;-50
2024/02/19 09:53:33;;;;;;;34.00;4.88;;;12.00;99.90;;;;;;5031864;28;20034;-50
2024/02/19 09:55:59;;;;;;;43.90;5.05;;;12.00;99.90;;;;;;5048533;28;20029;-50
2024/02/19 09:58:25;;;;;;;277.05;24.02;;;12.00;99.90;;;;;;5048277;28;20091;-50
2024/02/19 10:00:51;;;;;;;95.20;11.18;;;12.10;99.90;;;;;;5031751;28;20029;-50
2024/02/19 10:03:18;;;;;;;51.20;6.65;;;12.10;99.90;;;;;;5049713;28;20025;-50
2024/02/19 10:05:44;;;;;;;33.72;4.35;;;12.10;99.90;;;;;;5049087;28;20035;-50
2024/02/19 10:08:13;;;;;;;31.75;4.45;;;12.10;99.90;;;;;;5049441;28;20112;-50
2024/02/19 10:10:43;;;;;;;30.95;3.80;;;12.10;99.90;;;;;;5048098;28;20526;-50
2024/02/19 10:13:10;;;;;;;27.33;4.20;;;12.20;99.90;;;;;;5048186;28;20113;-50
2024/02/19 10:15:36;;;;;;;30.17;4.30;;;12.20;99.90;;;;;;5031281;28;20017;-50
2024/02/19 10:18:22;;;;;;;60.22;7.68;;;12.20;99.90;;;;;;5047834;28;20296;-50
2024/02/19 10:20:48;;;;;;;;;;;12.30;99.90;;;;;;5049189;28;20093;-51
2024/02/19 10:23:14;;;;;;;44.13;5.07;;;12.30;99.90;;;;;;5047919;28;19909;-50
2024/02/19 10:25:40;;;;;;;49.05;6.18;;;12.30;99.90;;;;;;5047926;28;20029;-50
2024/02/19 10:28:07;;;;;;;38.97;5.22;;;12.30;99.90;;;;;;5047822;28;20021;-50
2024/02/19 10:30:33;;;;;;;46.95;5.53;;;12.30;99.90;;;;;;5030510;28;20074;-50
2024/02/19 10:32:59;;;;;;;65.95;7.80;;;12.40;99.90;;;;;;5048985;28;20033;-51
2024/02/19 10:35:25;;;;;;;72.38;8.18;;;12.40;99.90;;;;;;5047954;28;20025;-50
2024/02/19 10:37:51;;;;;;;52.80;6.05;;;12.40;99.90;;;;;;5047229;28;20033;-50
2024/02/19 10:40:18;;;;;;;34.33;4.65;;;12.40;99.90;;;;;;5044418;28;20033;-50
2024/02/19 10:42:47;;;;;;;44.95;5.68;;;12.40;99.90;;;;;;5031166;28;20037;-50
2024/02/19 10:45:13;;;;;;;52.53;5.72;;;12.40;99.90;;;;;;5030044;28;20040;-50
2024/02/19 10:47:38;;;;;;;79.70;8.35;;;12.50;99.90;;;;;;5059028;28;20022;-50
2024/02/19 10:50:05;;;;;;;131.23;12.32;;;12.50;99.90;;;;;;5037077;28;20029;-50
2024/02/19 10:52:33;;;;;;;87.28;8.52;;;12.50;99.90;;;;;;5035851;28;20056;-50
2024/02/19 10:55:00;;;;;;;87.75;7.28;;;12.60;99.90;;;;;;5031499;28;20033;-51
2024/02/19 10:57:29;;;;;;;46.60;5.90;;;12.50;99.90;;;;;;5045062;28;20037;-50
2024/02/19 11:00:10;;;;;;;37.75;4.47;;;12.60;99.90;;;;;;5045008;28;20026;-51
2024/02/19 11:02:36;;;;;;;26.33;3.97;;;12.60;99.90;;;;;;5039781;28;20029;-50
2024/02/19 11:05:03;;;;;;;34.83;5.10;;;12.60;99.90;;;;;;5037890;28;20036;-50
2024/02/19 11:07:32;;;;;;;32.38;4.57;;;12.60;99.90;;;;;;5046029;28;20030;-50
2024/02/19 11:09:58;;;;;;;65.25;5.88;;;12.60;99.90;;;;;;5044629;28;20034;-50
2024/02/19 11:12:25;;;;;;;43.15;5.50;;;12.70;99.90;;;;;;5045674;28;20044;-50
2024/02/19 11:14:51;;;;;;;39.30;5.13;;;12.70;99.90;;;;;;5044185;28;20083;-51
2024/02/19 11:17:17;;;;;;;32.92;4.75;;;12.70;99.90;;;;;;5044013;28;20049;-49
2024/02/19 11:19:43;;;;;;;36.90;5.15;;;12.70;99.90;;;;;;5043721;28;20045;-49
2024/02/19 11:22:09;;;;;;;47.10;5.32;;;12.70;99.90;;;;;;5044054;28;20025;-49
2024/02/19 11:24:44;;;;;;;40.92;4.75;;;12.70;99.90;;;;;;5009969;28;20092;-49
2024/02/19 11:27:10;;;;;;;94.93;8.25;;;12.80;99.90;;;;;;5042783;28;20036;-49
2024/02/19 11:29:35;;;;;;;48.33;6.25;;;12.80;99.90;;;;;;5026297;28;20026;-49
2024/02/19 11:32:02;;;;;;;45.30;6.53;;;12.70;99.90;;;;;;5045439;28;20041;-49
2024/02/19 11:34:28;;;;;;;55.25;6.38;;;12.90;99.90;;;;;;5012335;28;20096;-49
2024/02/19 11:37:13;;;;;;;39.90;4.93;;;12.90;99.90;;;;;;5044561;28;20735;-49
2024/02/19 11:39:39;;;;;;;58.15;6.00;;;12.90;99.90;;;;;;5046642;28;20076;-49
2024/02/19 11:42:05;;;;;;;44.08;6.35;;;12.90;99.90;;;;;;5029167;28;20022;-49
2024/02/19 11:44:31;;;;;;;88.57;8.68;;;12.90;99.90;;;;;;5045684;28;20123;-49
2024/02/19 11:46:57;;;;;;;69.80;8.50;;;12.90;99.90;;;;;;5029288;28;20029;-49
2024/02/19 11:49:23;;;;;;;38.03;5.25;;;12.90;99.90;;;;;;5045407;28;20048;-49
2024/02/19 11:51:51;;;;;;;66.20;7.03;;;12.90;99.90;;;;;;5045970;28;20038;-49
2024/02/19 11:54:17;;;;;;;38.40;6.05;;;12.90;99.90;;;;;;5029675;28;20034;-49
2024/02/19 11:56:44;;;;;;;114.13;11.55;;;12.90;99.90;;;;;;5027252;28;20042;-50
2024/02/19 11:59:10;;;;;;;100.90;11.00;;;13.00;99.90;;;;;;5028455;28;20045;-49
2024/02/19 12:01:36;;;;;;;68.05;8.90;;;12.90;99.90;;;;;;5041278;28;20033;-50
2024/02/19 12:04:03;;;;;;;90.20;9.90;;;13.00;99.90;;;;;;5044966;28;20034;-49
2024/02/19 12:06:34;;;;;;;107.90;10.80;;;13.00;99.90;;;;;;5044049;28;20032;-49
2024/02/19 12:08:59;;;;;;;46.80;6.45;;;13.00;99.90;;;;;;5028002;28;20063;-49
2024/02/19 12:11:25;;;;;;;51.17;7.65;;;13.00;99.90;;;;;;5026043;28;20025;-49
2024/02/19 12:13:51;;;;;;;57.10;6.18;;;13.10;99.90;;;;;;5024898;28;20038;-49
2024/02/19 12:16:18;;;;;;;67.22;6.68;;;13.10;99.90;;;;;;5045007;28;20025;-50
2024/02/19 12:18:45;;;;;;;39.75;6.20;;;13.10;99.90;;;;;;5044172;28;20026;-49
2024/02/19 12:21:11;;;;;;;41.38;5.47;;;13.10;99.90;;;;;;5037369;28;20075;-49
2024/02/19 12:23:40;;;;;;;44.35;5.40;;;13.10;99.90;;;;;;5039756;28;20037;-49
2024/02/19 12:26:06;;;;;;;29.75;5.32;;;13.10;99.90;;;;;;5045640;28;20041;-49
2024/02/19 12:28:32;;;;;;;34.42;4.60;;;13.20;99.90;;;;;;5046904;28;20029;-49
2024/02/19 12:30:58;;;;;;;51.40;5.50;;;13.20;99.90;;;;;;5044042;28;20127;-50
2024/02/19 12:33:24;;;;;;;34.97;4.70;;;13.20;99.90;;;;;;5046719;28;20029;-49
2024/02/19 12:35:50;;;;;;;61.30;6.85;;;13.20;99.90;;;;;;5045477;28;20025;-49